sensor_id;sensor_type;location;lat;lon;timestamp;P1;durP1;ratioP1;P2;durP2;ratioP2
28266;SDS011;15525;45.568;5.448;2023-06-10T00:01:45;20.08;;;14.88;;
28266;SDS011;15525;45.568;5.448;2023-06-10T00:04:12;18.45;;;13.45;;
28266;SDS011;15525;45.568;5.448;2023-06-10T00:06:39;23.55;;;15.43;;
28266;SDS011;15525;45.568;5.448;2023-06-10T00:09:06;20.55;;;13.85;;
28266;SDS011;15525;45.568;5.448;2023-06-10T00:11:35;20.42;;;14.77;;
28266;SDS011;15525;45.568;5.448;2023-06-10T00:14:02;22.38;;;15.23;;
28266;SDS011;15525;45.568;5.448;2023-06-10T00:16:27;25.05;;;15.85;;
28266;SDS011;15525;45.568;5.448;2023-06-10T00:18:53;21.02;;;14.73;;
28266;SDS011;15525;45.568;5.448;2023-06-10T00:21:21;21.20;;;14.60;;
28266;SDS011;15525;45.568;5.448;2023-06-10T00:23:46;20.77;;;13.82;;
28266;SDS011;15525;45.568;5.448;2023-06-10T00:26:12;18.35;;;14.00;;
28266;SDS011;15525;45.568;5.448;2023-06-10T00:28:37;22.45;;;15.18;;
28266;SDS011;15525;45.568;5.448;2023-06-10T00:31:03;22.23;;;15.40;;
28266;SDS011;15525;45.568;5.448;2023-06-10T00:33:29;18.17;;;13.48;;
28266;SDS011;15525;45.568;5.448;2023-06-10T00:35:55;20.42;;;13.45;;
28266;SDS011;15525;45.568;5.448;2023-06-10T00:38:20;19.70;;;13.68;;
28266;SDS011;15525;45.568;5.448;2023-06-10T00:40:46;24.48;;;15.05;;
28266;SDS011;15525;45.568;5.448;2023-06-10T00:43:11;20.92;;;14.73;;
28266;SDS011;15525;45.568;5.448;2023-06-10T00:45:36;23.70;;;14.43;;
28266;SDS011;15525;45.568;5.448;2023-06-10T00:48:02;22.05;;;15.25;;
28266;SDS011;15525;45.568;5.448;2023-06-10T00:50:28;20.80;;;14.18;;
28266;SDS011;15525;45.568;5.448;2023-06-10T00:52:56;23.77;;;13.50;;
28266;SDS011;15525;45.568;5.448;2023-06-10T00:55:22;23.27;;;14.95;;
28266;SDS011;15525;45.568;5.448;2023-06-10T00:57:48;21.85;;;14.55;;
28266;SDS011;15525;45.568;5.448;2023-06-10T01:00:16;21.85;;;14.25;;
28266;SDS011;15525;45.568;5.448;2023-06-10T01:02:42;22.38;;;14.52;;
28266;SDS011;15525;45.568;5.448;2023-06-10T01:05:08;20.17;;;13.68;;
28266;SDS011;15525;45.568;5.448;2023-06-10T01:13:07;21.13;;;13.52;;
28266;SDS011;15525;45.568;5.448;2023-06-10T01:15:36;21.80;;;14.15;;
28266;SDS011;15525;45.568;5.448;2023-06-10T01:18:04;18.08;;;12.90;;
28266;SDS011;15525;45.568;5.448;2023-06-10T01:20:34;20.80;;;12.55;;
28266;SDS011;15525;45.568;5.448;2023-06-10T01:23:04;18.15;;;12.43;;
28266;SDS011;15525;45.568;5.448;2023-06-10T01:25:30;20.52;;;13.93;;
28266;SDS011;15525;45.568;5.448;2023-06-10T01:30:48;18.48;;;12.40;;
28266;SDS011;15525;45.568;5.448;2023-06-10T01:33:29;18.58;;;11.77;;
28266;SDS011;15525;45.568;5.448;2023-06-10T01:35:58;15.23;;;10.48;;
28266;SDS011;15525;45.568;5.448;2023-06-10T01:38:26;15.73;;;10.75;;
28266;SDS011;15525;45.568;5.448;2023-06-10T01:40:53;16.25;;;10.88;;
28266;SDS011;15525;45.568;5.448;2023-06-10T01:43:21;15.65;;;10.80;;
28266;SDS011;15525;45.568;5.448;2023-06-10T01:45:46;16.15;;;11.07;;
28266;SDS011;15525;45.568;5.448;2023-06-10T01:48:12;17.42;;;12.45;;
28266;SDS011;15525;45.568;5.448;2023-06-10T01:50:37;17.23;;;11.10;;
28266;SDS011;15525;45.568;5.448;2023-06-10T01:53:03;19.02;;;12.77;;
28266;SDS011;15525;45.568;5.448;2023-06-10T01:55:30;17.73;;;12.05;;
28266;SDS011;15525;45.568;5.448;2023-06-10T01:57:56;20.15;;;11.55;;
28266;SDS011;15525;45.568;5.448;2023-06-10T02:00:21;14.63;;;10.00;;
28266;SDS011;15525;45.568;5.448;2023-06-10T02:02:46;19.67;;;12.02;;
28266;SDS011;15525;45.568;5.448;2023-06-10T02:05:12;17.35;;;11.25;;
28266;SDS011;15525;45.568;5.448;2023-06-10T02:07:37;16.20;;;11.25;;
28266;SDS011;15525;45.568;5.448;2023-06-10T02:10:03;18.40;;;11.50;;
28266;SDS011;15525;45.568;5.448;2023-06-10T02:12:30;17.30;;;11.48;;
28266;SDS011;15525;45.568;5.448;2023-06-10T02:14:55;15.35;;;10.85;;
28266;SDS011;15525;45.568;5.448;2023-06-10T02:17:20;13.27;;;10.48;;
28266;SDS011;15525;45.568;5.448;2023-06-10T02:19:46;17.40;;;11.25;;
28266;SDS011;15525;45.568;5.448;2023-06-10T02:22:17;23.30;;;12.02;;
28266;SDS011;15525;45.568;5.448;2023-06-10T02:24:44;18.67;;;12.05;;
28266;SDS011;15525;45.568;5.448;2023-06-10T02:27:09;19.75;;;12.27;;
28266;SDS011;15525;45.568;5.448;2023-06-10T02:29:35;16.17;;;10.98;;
28266;SDS011;15525;45.568;5.448;2023-06-10T02:32:01;16.15;;;11.57;;
28266;SDS011;15525;45.568;5.448;2023-06-10T02:34:27;16.98;;;11.40;;
28266;SDS011;15525;45.568;5.448;2023-06-10T02:36:53;21.40;;;12.57;;
28266;SDS011;15525;45.568;5.448;2023-06-10T02:39:19;19.83;;;11.70;;
28266;SDS011;15525;45.568;5.448;2023-06-10T02:41:44;17.67;;;10.63;;
28266;SDS011;15525;45.568;5.448;2023-06-10T02:44:09;21.23;;;11.25;;
28266;SDS011;15525;45.568;5.448;2023-06-10T02:46:35;15.48;;;10.10;;
28266;SDS011;15525;45.568;5.448;2023-06-10T02:49:00;14.60;;;10.05;;
28266;SDS011;15525;45.568;5.448;2023-06-10T02:51:26;11.65;;;8.60;;
28266;SDS011;15525;45.568;5.448;2023-06-10T02:53:52;15.73;;;9.65;;
28266;SDS011;15525;45.568;5.448;2023-06-10T02:56:18;16.20;;;9.32;;
28266;SDS011;15525;45.568;5.448;2023-06-10T02:58:44;12.98;;;9.68;;
28266;SDS011;15525;45.568;5.448;2023-06-10T03:01:09;14.88;;;9.82;;
28266;SDS011;15525;45.568;5.448;2023-06-10T03:03:35;13.00;;;9.52;;
28266;SDS011;15525;45.568;5.448;2023-06-10T03:06:02;15.55;;;10.68;;
28266;SDS011;15525;45.568;5.448;2023-06-10T03:08:27;16.65;;;10.55;;
28266;SDS011;15525;45.568;5.448;2023-06-10T03:10:53;16.80;;;10.38;;
28266;SDS011;15525;45.568;5.448;2023-06-10T03:13:18;18.13;;;10.90;;
28266;SDS011;15525;45.568;5.448;2023-06-10T03:15:44;15.65;;;10.23;;
28266;SDS011;15525;45.568;5.448;2023-06-10T03:18:11;16.55;;;10.68;;
28266;SDS011;15525;45.568;5.448;2023-06-10T03:20:36;14.27;;;9.50;;
28266;SDS011;15525;45.568;5.448;2023-06-10T03:23:02;15.02;;;10.38;;
28266;SDS011;15525;45.568;5.448;2023-06-10T03:25:30;18.48;;;11.05;;
28266;SDS011;15525;45.568;5.448;2023-06-10T03:27:55;15.85;;;10.15;;
28266;SDS011;15525;45.568;5.448;2023-06-10T03:30:21;15.95;;;10.98;;
28266;SDS011;15525;45.568;5.448;2023-06-10T03:32:46;14.07;;;10.52;;
28266;SDS011;15525;45.568;5.448;2023-06-10T03:35:11;16.23;;;11.60;;
28266;SDS011;15525;45.568;5.448;2023-06-10T03:37:37;18.58;;;10.40;;
28266;SDS011;15525;45.568;5.448;2023-06-10T03:40:02;16.55;;;11.18;;
28266;SDS011;15525;45.568;5.448;2023-06-10T03:42:32;14.32;;;10.75;;
28266;SDS011;15525;45.568;5.448;2023-06-10T03:44:57;17.35;;;10.77;;
28266;SDS011;15525;45.568;5.448;2023-06-10T03:47:23;16.50;;;10.57;;
28266;SDS011;15525;45.568;5.448;2023-06-10T03:49:48;15.77;;;11.00;;
28266;SDS011;15525;45.568;5.448;2023-06-10T03:52:14;17.35;;;11.40;;
28266;SDS011;15525;45.568;5.448;2023-06-10T03:54:39;18.02;;;11.73;;
28266;SDS011;15525;45.568;5.448;2023-06-10T03:57:04;19.08;;;11.57;;
28266;SDS011;15525;45.568;5.448;2023-06-10T03:59:31;17.88;;;11.57;;
28266;SDS011;15525;45.568;5.448;2023-06-10T04:01:56;18.20;;;11.88;;
28266;SDS011;15525;45.568;5.448;2023-06-10T04:04:22;16.80;;;11.27;;
28266;SDS011;15525;45.568;5.448;2023-06-10T04:06:48;17.33;;;12.18;;
28266;SDS011;15525;45.568;5.448;2023-06-10T04:09:14;15.90;;;11.63;;
28266;SDS011;15525;45.568;5.448;2023-06-10T04:11:41;16.48;;;12.38;;
28266;SDS011;15525;45.568;5.448;2023-06-10T04:14:07;18.45;;;12.57;;
28266;SDS011;15525;45.568;5.448;2023-06-10T04:16:33;20.65;;;12.68;;
28266;SDS011;15525;45.568;5.448;2023-06-10T04:18:59;16.92;;;12.90;;
28266;SDS011;15525;45.568;5.448;2023-06-10T04:21:25;20.60;;;13.38;;
28266;SDS011;15525;45.568;5.448;2023-06-10T04:23:51;19.23;;;13.50;;
28266;SDS011;15525;45.568;5.448;2023-06-10T04:26:17;18.40;;;12.65;;
28266;SDS011;15525;45.568;5.448;2023-06-10T04:28:43;20.60;;;14.07;;
28266;SDS011;15525;45.568;5.448;2023-06-10T04:31:08;15.65;;;12.02;;
28266;SDS011;15525;45.568;5.448;2023-06-10T04:33:35;18.70;;;12.90;;
28266;SDS011;15525;45.568;5.448;2023-06-10T04:36:00;21.05;;;13.50;;
28266;SDS011;15525;45.568;5.448;2023-06-10T04:38:26;19.10;;;13.75;;
28266;SDS011;15525;45.568;5.448;2023-06-10T04:40:52;18.40;;;13.07;;
28266;SDS011;15525;45.568;5.448;2023-06-10T04:43:17;20.35;;;14.70;;
28266;SDS011;15525;45.568;5.448;2023-06-10T04:45:43;20.38;;;13.48;;
28266;SDS011;15525;45.568;5.448;2023-06-10T04:48:09;23.60;;;15.10;;
28266;SDS011;15525;45.568;5.448;2023-06-10T04:50:35;22.83;;;15.52;;
28266;SDS011;15525;45.568;5.448;2023-06-10T04:53:01;20.73;;;15.40;;
28266;SDS011;15525;45.568;5.448;2023-06-10T04:55:26;24.88;;;16.33;;
28266;SDS011;15525;45.568;5.448;2023-06-10T04:57:52;27.52;;;17.10;;
28266;SDS011;15525;45.568;5.448;2023-06-10T05:00:17;25.80;;;16.60;;
28266;SDS011;15525;45.568;5.448;2023-06-10T05:02:43;33.05;;;19.45;;
28266;SDS011;15525;45.568;5.448;2023-06-10T05:05:09;26.48;;;17.58;;
28266;SDS011;15525;45.568;5.448;2023-06-10T05:07:35;29.08;;;18.17;;
28266;SDS011;15525;45.568;5.448;2023-06-10T05:10:00;25.25;;;16.63;;
28266;SDS011;15525;45.568;5.448;2023-06-10T05:12:26;27.90;;;18.08;;
28266;SDS011;15525;45.568;5.448;2023-06-10T05:14:52;28.58;;;17.90;;
28266;SDS011;15525;45.568;5.448;2023-06-10T05:17:17;28.63;;;18.13;;
28266;SDS011;15525;45.568;5.448;2023-06-10T05:19:42;29.25;;;18.20;;
28266;SDS011;15525;45.568;5.448;2023-06-10T05:22:08;29.73;;;18.33;;
28266;SDS011;15525;45.568;5.448;2023-06-10T05:24:34;27.88;;;17.58;;
28266;SDS011;15525;45.568;5.448;2023-06-10T05:26:59;27.02;;;17.38;;
28266;SDS011;15525;45.568;5.448;2023-06-10T05:29:25;27.35;;;17.63;;
28266;SDS011;15525;45.568;5.448;2023-06-10T05:31:50;26.65;;;16.73;;
28266;SDS011;15525;45.568;5.448;2023-06-10T05:34:16;24.00;;;16.08;;
28266;SDS011;15525;45.568;5.448;2023-06-10T05:36:41;31.70;;;17.98;;
28266;SDS011;15525;45.568;5.448;2023-06-10T05:39:07;28.23;;;17.65;;
28266;SDS011;15525;45.568;5.448;2023-06-10T05:41:33;28.85;;;18.30;;
28266;SDS011;15525;45.568;5.448;2023-06-10T05:43:59;26.25;;;17.00;;
28266;SDS011;15525;45.568;5.448;2023-06-10T05:46:24;30.55;;;18.30;;
28266;SDS011;15525;45.568;5.448;2023-06-10T05:48:50;26.65;;;17.77;;
28266;SDS011;15525;45.568;5.448;2023-06-10T05:51:15;25.30;;;16.63;;
28266;SDS011;15525;45.568;5.448;2023-06-10T05:53:40;30.42;;;18.23;;
28266;SDS011;15525;45.568;5.448;2023-06-10T05:56:06;25.13;;;17.27;;
28266;SDS011;15525;45.568;5.448;2023-06-10T05:58:31;27.90;;;17.13;;
28266;SDS011;15525;45.568;5.448;2023-06-10T06:00:57;24.55;;;16.75;;
28266;SDS011;15525;45.568;5.448;2023-06-10T06:03:22;26.38;;;16.83;;
28266;SDS011;15525;45.568;5.448;2023-06-10T06:05:48;26.55;;;16.55;;
28266;SDS011;15525;45.568;5.448;2023-06-10T06:08:13;25.55;;;16.60;;
28266;SDS011;15525;45.568;5.448;2023-06-10T06:10:38;25.70;;;16.98;;
28266;SDS011;15525;45.568;5.448;2023-06-10T06:13:04;22.15;;;15.00;;
28266;SDS011;15525;45.568;5.448;2023-06-10T06:15:29;23.10;;;15.95;;
28266;SDS011;15525;45.568;5.448;2023-06-10T06:17:55;23.75;;;15.82;;
28266;SDS011;15525;45.568;5.448;2023-06-10T06:20:21;24.58;;;16.77;;
28266;SDS011;15525;45.568;5.448;2023-06-10T06:22:47;24.05;;;15.98;;
28266;SDS011;15525;45.568;5.448;2023-06-10T06:25:12;22.02;;;15.55;;
28266;SDS011;15525;45.568;5.448;2023-06-10T06:27:37;24.42;;;16.15;;
28266;SDS011;15525;45.568;5.448;2023-06-10T06:30:03;27.45;;;17.90;;
28266;SDS011;15525;45.568;5.448;2023-06-10T06:32:29;23.48;;;17.35;;
28266;SDS011;15525;45.568;5.448;2023-06-10T06:34:55;20.77;;;15.05;;
28266;SDS011;15525;45.568;5.448;2023-06-10T06:37:24;23.02;;;15.10;;
28266;SDS011;15525;45.568;5.448;2023-06-10T06:39:53;20.30;;;14.35;;
28266;SDS011;15525;45.568;5.448;2023-06-10T06:42:19;19.60;;;14.50;;
28266;SDS011;15525;45.568;5.448;2023-06-10T06:44:45;20.00;;;14.73;;
28266;SDS011;15525;45.568;5.448;2023-06-10T06:47:12;19.02;;;13.93;;
28266;SDS011;15525;45.568;5.448;2023-06-10T06:54:47;21.10;;;14.02;;
28266;SDS011;15525;45.568;5.448;2023-06-10T06:57:13;20.25;;;14.15;;
28266;SDS011;15525;45.568;5.448;2023-06-10T06:59:38;19.73;;;14.27;;
28266;SDS011;15525;45.568;5.448;2023-06-10T07:02:03;19.95;;;14.07;;
28266;SDS011;15525;45.568;5.448;2023-06-10T07:04:29;19.92;;;14.10;;
28266;SDS011;15525;45.568;5.448;2023-06-10T07:06:55;23.50;;;14.23;;
28266;SDS011;15525;45.568;5.448;2023-06-10T07:09:20;20.80;;;13.82;;
28266;SDS011;15525;45.568;5.448;2023-06-10T07:11:46;17.33;;;12.40;;
28266;SDS011;15525;45.568;5.448;2023-06-10T07:14:11;19.20;;;12.48;;
28266;SDS011;15525;45.568;5.448;2023-06-10T07:16:36;17.00;;;12.18;;
28266;SDS011;15525;45.568;5.448;2023-06-10T07:19:02;17.13;;;12.73;;
28266;SDS011;15525;45.568;5.448;2023-06-10T07:21:27;14.35;;;11.68;;
28266;SDS011;15525;45.568;5.448;2023-06-10T07:23:54;14.82;;;11.15;;
28266;SDS011;15525;45.568;5.448;2023-06-10T07:26:21;14.32;;;10.88;;
28266;SDS011;15525;45.568;5.448;2023-06-10T07:28:48;15.63;;;10.68;;
28266;SDS011;15525;45.568;5.448;2023-06-10T07:31:13;15.27;;;10.07;;
28266;SDS011;15525;45.568;5.448;2023-06-10T07:33:39;14.95;;;10.48;;
28266;SDS011;15525;45.568;5.448;2023-06-10T07:36:05;14.68;;;9.93;;
28266;SDS011;15525;45.568;5.448;2023-06-10T07:38:31;13.27;;;9.60;;
28266;SDS011;15525;45.568;5.448;2023-06-10T07:40:56;15.02;;;9.02;;
28266;SDS011;15525;45.568;5.448;2023-06-10T07:43:21;12.88;;;9.18;;
28266;SDS011;15525;45.568;5.448;2023-06-10T07:45:47;13.63;;;8.88;;
28266;SDS011;15525;45.568;5.448;2023-06-10T07:48:12;10.88;;;9.23;;
28266;SDS011;15525;45.568;5.448;2023-06-10T07:50:38;12.23;;;8.85;;
28266;SDS011;15525;45.568;5.448;2023-06-10T07:53:03;13.48;;;9.13;;
28266;SDS011;15525;45.568;5.448;2023-06-10T07:55:28;12.88;;;8.68;;
28266;SDS011;15525;45.568;5.448;2023-06-10T07:57:54;9.98;;;8.32;;
28266;SDS011;15525;45.568;5.448;2023-06-10T08:00:20;10.93;;;7.93;;
28266;SDS011;15525;45.568;5.448;2023-06-10T08:02:46;10.38;;;8.15;;
28266;SDS011;15525;45.568;5.448;2023-06-10T08:05:12;10.70;;;8.15;;
28266;SDS011;15525;45.568;5.448;2023-06-10T08:07:37;9.63;;;7.93;;
28266;SDS011;15525;45.568;5.448;2023-06-10T08:10:04;10.90;;;7.97;;
28266;SDS011;15525;45.568;5.448;2023-06-10T08:12:30;11.13;;;7.72;;
28266;SDS011;15525;45.568;5.448;2023-06-10T08:14:56;11.35;;;8.38;;
28266;SDS011;15525;45.568;5.448;2023-06-10T08:17:22;11.00;;;8.00;;
28266;SDS011;15525;45.568;5.448;2023-06-10T08:19:47;12.43;;;7.75;;
28266;SDS011;15525;45.568;5.448;2023-06-10T08:22:12;13.43;;;8.60;;
28266;SDS011;15525;45.568;5.448;2023-06-10T08:24:38;10.82;;;8.40;;
28266;SDS011;15525;45.568;5.448;2023-06-10T08:27:03;10.50;;;7.65;;
28266;SDS011;15525;45.568;5.448;2023-06-10T08:29:30;11.07;;;7.82;;
28266;SDS011;15525;45.568;5.448;2023-06-10T08:31:56;11.98;;;8.20;;
28266;SDS011;15525;45.568;5.448;2023-06-10T08:34:22;8.73;;;7.70;;
28266;SDS011;15525;45.568;5.448;2023-06-10T08:36:47;9.13;;;7.10;;
28266;SDS011;15525;45.568;5.448;2023-06-10T08:39:18;10.20;;;7.85;;
28266;SDS011;15525;45.568;5.448;2023-06-10T08:41:44;10.82;;;7.18;;
28266;SDS011;15525;45.568;5.448;2023-06-10T08:44:23;13.75;;;7.55;;
28266;SDS011;15525;45.568;5.448;2023-06-10T08:46:53;8.45;;;6.93;;
28266;SDS011;15525;45.568;5.448;2023-06-10T08:49:21;7.65;;;6.22;;
28266;SDS011;15525;45.568;5.448;2023-06-10T08:51:55;8.63;;;6.60;;
28266;SDS011;15525;45.568;5.448;2023-06-10T08:54:25;7.35;;;6.35;;
28266;SDS011;15525;45.568;5.448;2023-06-10T08:56:52;11.32;;;7.25;;
28266;SDS011;15525;45.568;5.448;2023-06-10T08:59:20;9.25;;;6.70;;
28266;SDS011;15525;45.568;5.448;2023-06-10T09:01:46;9.35;;;6.70;;
28266;SDS011;15525;45.568;5.448;2023-06-10T09:04:12;11.35;;;7.32;;
28266;SDS011;15525;45.568;5.448;2023-06-10T09:06:38;9.70;;;7.00;;
28266;SDS011;15525;45.568;5.448;2023-06-10T09:09:05;9.43;;;6.30;;
28266;SDS011;15525;45.568;5.448;2023-06-10T09:11:32;7.10;;;6.13;;
28266;SDS011;15525;45.568;5.448;2023-06-10T09:13:58;8.70;;;6.57;;
28266;SDS011;15525;45.568;5.448;2023-06-10T09:16:24;9.27;;;6.60;;
28266;SDS011;15525;45.568;5.448;2023-06-10T09:18:50;8.50;;;6.72;;
28266;SDS011;15525;45.568;5.448;2023-06-10T09:21:21;7.85;;;6.68;;
28266;SDS011;15525;45.568;5.448;2023-06-10T09:23:50;9.00;;;6.82;;
28266;SDS011;15525;45.568;5.448;2023-06-10T09:26:16;10.30;;;7.30;;
28266;SDS011;15525;45.568;5.448;2023-06-10T09:28:47;8.52;;;7.05;;
28266;SDS011;15525;45.568;5.448;2023-06-10T09:31:16;11.55;;;7.57;;
28266;SDS011;15525;45.568;5.448;2023-06-10T09:33:46;16.20;;;7.53;;
28266;SDS011;15525;45.568;5.448;2023-06-10T09:36:20;9.75;;;6.13;;
28266;SDS011;15525;45.568;5.448;2023-06-10T09:38:46;11.45;;;5.47;;
28266;SDS011;15525;45.568;5.448;2023-06-10T09:41:15;7.60;;;4.07;;
28266;SDS011;15525;45.568;5.448;2023-06-10T09:43:45;5.18;;;4.35;;
28266;SDS011;15525;45.568;5.448;2023-06-10T09:46:18;6.45;;;4.40;;
28266;SDS011;15525;45.568;5.448;2023-06-10T09:48:45;7.22;;;4.70;;
28266;SDS011;15525;45.568;5.448;2023-06-10T09:51:12;6.18;;;4.03;;
28266;SDS011;15525;45.568;5.448;2023-06-10T09:53:38;5.70;;;4.07;;
28266;SDS011;15525;45.568;5.448;2023-06-10T09:56:04;4.88;;;4.35;;
28266;SDS011;15525;45.568;5.448;2023-06-10T09:58:34;6.15;;;4.78;;
28266;SDS011;15525;45.568;5.448;2023-06-10T10:01:09;8.10;;;5.25;;
28266;SDS011;15525;45.568;5.448;2023-06-10T10:03:45;12.13;;;5.38;;
28266;SDS011;15525;45.568;5.448;2023-06-10T10:06:12;7.55;;;5.35;;
28266;SDS011;15525;45.568;5.448;2023-06-10T10:08:39;9.05;;;5.50;;
28266;SDS011;15525;45.568;5.448;2023-06-10T10:11:04;8.10;;;5.88;;
28266;SDS011;15525;45.568;5.448;2023-06-10T10:13:30;9.82;;;6.20;;
28266;SDS011;15525;45.568;5.448;2023-06-10T10:15:59;11.13;;;5.93;;
28266;SDS011;15525;45.568;5.448;2023-06-10T10:18:29;8.27;;;6.07;;
28266;SDS011;15525;45.568;5.448;2023-06-10T10:20:56;8.25;;;6.13;;
28266;SDS011;15525;45.568;5.448;2023-06-10T10:23:27;9.20;;;6.35;;
28266;SDS011;15525;45.568;5.448;2023-06-10T10:26:00;7.47;;;5.93;;
28266;SDS011;15525;45.568;5.448;2023-06-10T10:28:29;9.43;;;6.15;;
28266;SDS011;15525;45.568;5.448;2023-06-10T10:31:06;10.45;;;6.07;;
28266;SDS011;15525;45.568;5.448;2023-06-10T10:33:45;9.82;;;5.55;;
28266;SDS011;15525;45.568;5.448;2023-06-10T10:36:21;6.97;;;5.80;;
28266;SDS011;15525;45.568;5.448;2023-06-10T10:38:47;9.10;;;5.88;;
28266;SDS011;15525;45.568;5.448;2023-06-10T10:41:14;8.10;;;6.00;;
28266;SDS011;15525;45.568;5.448;2023-06-10T10:43:45;7.30;;;5.80;;
28266;SDS011;15525;45.568;5.448;2023-06-10T10:46:16;9.10;;;5.63;;
28266;SDS011;15525;45.568;5.448;2023-06-10T10:48:42;8.35;;;5.80;;
28266;SDS011;15525;45.568;5.448;2023-06-10T10:51:09;6.68;;;5.50;;
28266;SDS011;15525;45.568;5.448;2023-06-10T10:53:37;9.70;;;5.90;;
28266;SDS011;15525;45.568;5.448;2023-06-10T10:56:07;9.82;;;6.13;;
28266;SDS011;15525;45.568;5.448;2023-06-10T10:58:39;9.18;;;6.30;;
28266;SDS011;15525;45.568;5.448;2023-06-10T11:01:14;8.57;;;5.82;;
28266;SDS011;15525;45.568;5.448;2023-06-10T11:03:46;8.88;;;5.53;;
28266;SDS011;15525;45.568;5.448;2023-06-10T11:06:15;6.70;;;5.28;;
28266;SDS011;15525;45.568;5.448;2023-06-10T11:11:23;10.98;;;5.20;;
28266;SDS011;15525;45.568;5.448;2023-06-10T11:16:29;8.43;;;5.47;;
28266;SDS011;15525;45.568;5.448;2023-06-10T11:18:55;7.07;;;4.50;;
28266;SDS011;15525;45.568;5.448;2023-06-10T11:21:24;5.63;;;4.45;;
28266;SDS011;15525;45.568;5.448;2023-06-10T11:23:53;5.10;;;4.30;;
28266;SDS011;15525;45.568;5.448;2023-06-10T11:29:06;4.05;;;3.63;;
28266;SDS011;15525;45.568;5.448;2023-06-10T11:31:37;6.38;;;4.03;;
28266;SDS011;15525;45.568;5.448;2023-06-10T11:34:05;6.45;;;4.10;;
28266;SDS011;15525;45.568;5.448;2023-06-10T11:36:32;4.93;;;3.78;;
28266;SDS011;15525;45.568;5.448;2023-06-10T11:38:59;7.55;;;4.43;;
28266;SDS011;15525;45.568;5.448;2023-06-10T11:41:29;5.30;;;4.00;;
28266;SDS011;15525;45.568;5.448;2023-06-10T11:44:08;6.13;;;4.10;;
28266;SDS011;15525;45.568;5.448;2023-06-10T11:46:35;4.95;;;4.35;;
28266;SDS011;15525;45.568;5.448;2023-06-10T11:49:01;4.97;;;4.20;;
28266;SDS011;15525;45.568;5.448;2023-06-10T11:51:28;7.93;;;4.70;;
28266;SDS011;15525;45.568;5.448;2023-06-10T11:53:57;8.75;;;5.60;;
28266;SDS011;15525;45.568;5.448;2023-06-10T11:56:22;6.97;;;4.80;;
28266;SDS011;15525;45.568;5.448;2023-06-10T11:58:53;4.90;;;4.38;;
28266;SDS011;15525;45.568;5.448;2023-06-10T12:01:20;6.30;;;4.50;;
28266;SDS011;15525;45.568;5.448;2023-06-10T12:03:47;5.65;;;4.30;;
28266;SDS011;15525;45.568;5.448;2023-06-10T12:06:12;6.30;;;4.32;;
28266;SDS011;15525;45.568;5.448;2023-06-10T12:08:41;7.88;;;4.60;;
28266;SDS011;15525;45.568;5.448;2023-06-10T12:11:08;4.75;;;4.25;;
28266;SDS011;15525;45.568;5.448;2023-06-10T12:13:33;6.15;;;4.18;;
28266;SDS011;15525;45.568;5.448;2023-06-10T12:16:06;6.20;;;4.40;;
28266;SDS011;15525;45.568;5.448;2023-06-10T12:18:32;5.55;;;4.45;;
28266;SDS011;15525;45.568;5.448;2023-06-10T12:20:58;9.38;;;5.00;;
28266;SDS011;15525;45.568;5.448;2023-06-10T12:23:24;7.93;;;4.70;;
28266;SDS011;15525;45.568;5.448;2023-06-10T12:25:55;6.22;;;4.93;;
28266;SDS011;15525;45.568;5.448;2023-06-10T12:28:21;5.72;;;4.80;;
28266;SDS011;15525;45.568;5.448;2023-06-10T12:30:47;7.32;;;4.68;;
28266;SDS011;15525;45.568;5.448;2023-06-10T12:33:16;5.22;;;4.60;;
28266;SDS011;15525;45.568;5.448;2023-06-10T12:35:52;6.22;;;4.53;;
28266;SDS011;15525;45.568;5.448;2023-06-10T12:38:24;5.10;;;4.15;;
28266;SDS011;15525;45.568;5.448;2023-06-10T12:40:54;6.15;;;4.35;;
28266;SDS011;15525;45.568;5.448;2023-06-10T12:43:26;5.03;;;3.92;;
28266;SDS011;15525;45.568;5.448;2023-06-10T12:45:51;6.57;;;4.07;;
28266;SDS011;15525;45.568;5.448;2023-06-10T12:48:20;3.97;;;3.13;;
28266;SDS011;15525;45.568;5.448;2023-06-10T12:50:53;5.28;;;3.33;;
28266;SDS011;15525;45.568;5.448;2023-06-10T12:53:20;3.92;;;3.13;;
28266;SDS011;15525;45.568;5.448;2023-06-10T12:55:46;4.18;;;3.78;;
28266;SDS011;15525;45.568;5.448;2023-06-10T12:58:12;5.63;;;3.67;;
28266;SDS011;15525;45.568;5.448;2023-06-10T13:00:38;6.20;;;3.90;;
28266;SDS011;15525;45.568;5.448;2023-06-10T13:03:04;4.82;;;3.28;;
28266;SDS011;15525;45.568;5.448;2023-06-10T13:05:30;3.97;;;3.38;;
28266;SDS011;15525;45.568;5.448;2023-06-10T13:07:56;4.18;;;3.28;;
28266;SDS011;15525;45.568;5.448;2023-06-10T13:10:22;3.78;;;2.80;;
28266;SDS011;15525;45.568;5.448;2023-06-10T13:12:48;3.47;;;2.80;;
28266;SDS011;15525;45.568;5.448;2023-06-10T13:15:14;3.95;;;2.55;;
28266;SDS011;15525;45.568;5.448;2023-06-10T13:17:40;2.30;;;2.10;;
28266;SDS011;15525;45.568;5.448;2023-06-10T13:20:06;2.15;;;1.95;;
28266;SDS011;15525;45.568;5.448;2023-06-10T13:22:32;2.90;;;1.95;;
28266;SDS011;15525;45.568;5.448;2023-06-10T13:25:00;2.40;;;2.20;;
28266;SDS011;15525;45.568;5.448;2023-06-10T13:27:26;2.42;;;1.83;;
28266;SDS011;15525;45.568;5.448;2023-06-10T13:29:52;1.80;;;1.70;;
28266;SDS011;15525;45.568;5.448;2023-06-10T13:32:19;2.53;;;1.90;;
28266;SDS011;15525;45.568;5.448;2023-06-10T13:34:44;3.50;;;1.98;;
28266;SDS011;15525;45.568;5.448;2023-06-10T13:37:10;3.58;;;2.10;;
28266;SDS011;15525;45.568;5.448;2023-06-10T13:39:37;2.10;;;1.88;;
28266;SDS011;15525;45.568;5.448;2023-06-10T13:42:03;2.05;;;1.85;;
28266;SDS011;15525;45.568;5.448;2023-06-10T13:44:29;2.40;;;1.90;;
28266;SDS011;15525;45.568;5.448;2023-06-10T13:46:58;2.20;;;2.00;;
28266;SDS011;15525;45.568;5.448;2023-06-10T13:49:24;4.43;;;2.20;;
28266;SDS011;15525;45.568;5.448;2023-06-10T13:51:50;2.60;;;2.38;;
28266;SDS011;15525;45.568;5.448;2023-06-10T13:54:15;3.50;;;2.38;;
28266;SDS011;15525;45.568;5.448;2023-06-10T13:56:40;2.80;;;2.60;;
28266;SDS011;15525;45.568;5.448;2023-06-10T13:59:06;5.32;;;2.35;;
28266;SDS011;15525;45.568;5.448;2023-06-10T14:01:31;3.42;;;2.40;;
28266;SDS011;15525;45.568;5.448;2023-06-10T14:03:57;3.00;;;2.70;;
28266;SDS011;15525;45.568;5.448;2023-06-10T14:06:22;3.22;;;2.30;;
28266;SDS011;15525;45.568;5.448;2023-06-10T14:08:48;2.40;;;2.20;;
28266;SDS011;15525;45.568;5.448;2023-06-10T14:11:13;3.35;;;2.30;;
28266;SDS011;15525;45.568;5.448;2023-06-10T14:13:39;2.60;;;2.30;;
28266;SDS011;15525;45.568;5.448;2023-06-10T14:16:05;3.10;;;2.28;;
28266;SDS011;15525;45.568;5.448;2023-06-10T14:18:30;2.08;;;1.88;;
28266;SDS011;15525;45.568;5.448;2023-06-10T14:20:56;3.10;;;2.10;;
28266;SDS011;15525;45.568;5.448;2023-06-10T14:23:21;4.10;;;2.20;;
28266;SDS011;15525;45.568;5.448;2023-06-10T14:25:47;4.55;;;2.17;;
28266;SDS011;15525;45.568;5.448;2023-06-10T14:28:12;3.25;;;2.00;;
28266;SDS011;15525;45.568;5.448;2023-06-10T14:30:37;2.10;;;1.90;;
28266;SDS011;15525;45.568;5.448;2023-06-10T14:33:03;3.25;;;1.98;;
28266;SDS011;15525;45.568;5.448;2023-06-10T14:35:28;3.53;;;2.13;;
28266;SDS011;15525;45.568;5.448;2023-06-10T14:37:54;3.25;;;2.08;;
28266;SDS011;15525;45.568;5.448;2023-06-10T14:40:19;2.38;;;1.90;;
28266;SDS011;15525;45.568;5.448;2023-06-10T14:42:47;1.80;;;1.70;;
28266;SDS011;15525;45.568;5.448;2023-06-10T14:45:13;3.10;;;2.30;;
28266;SDS011;15525;45.568;5.448;2023-06-10T14:47:40;1.98;;;1.80;;
28266;SDS011;15525;45.568;5.448;2023-06-10T14:50:05;3.05;;;2.03;;
28266;SDS011;15525;45.568;5.448;2023-06-10T14:52:30;1.92;;;1.80;;